Time;durP1;ratioP1;P1;durP2;ratioP2;P2;SDS_P1;SDS_P2;PMS_P1;PMS_P2;Temp;Humidity;BMP_temperature;BMP_pressure;BME280_temperature;BME280_humidity;BME280_pressure;Samples;Min_cycle;Max_cycle;Signal;HPM_P1;HPM_P2
2023/07/05 00:00:07;;;;;;;9.87;9.07;;;;;;;12.72;100.00;101073.59;5012645;28;20542;-43
2023/07/05 00:02:34;;;;;;;8.03;7.63;;;;;;;12.69;100.00;101081.22;5014664;28;21008;-46
2023/07/05 00:05:04;;;;;;;10.47;9.57;;;;;;;12.64;100.00;101089.84;5014718;28;20496;-42
2023/07/05 00:07:32;;;;;;;10.07;9.47;;;;;;;12.61;100.00;101081.38;5014467;28;20491;-47
2023/07/05 00:10:00;;;;;;;9.90;9.20;;;;;;;12.58;100.00;101077.25;5014025;28;20483;-43
2023/07/05 00:12:28;;;;;;;9.50;8.60;;;;;;;12.54;100.00;101073.34;5014331;28;20491;-46
2023/07/05 00:14:55;;;;;;;10.03;9.20;;;;;;;12.51;100.00;101075.59;5014755;28;20441;-41
2023/07/05 00:17:24;;;;;;;10.47;8.60;;;;;;;12.48;100.00;101071.47;5014774;28;20803;-43
2023/07/05 00:19:52;;;;;;;10.10;9.20;;;;;;;12.47;100.00;101079.69;5014003;28;20471;-44
2023/07/05 00:22:21;;;;;;;8.77;7.90;;;;;;;12.42;100.00;101074.97;5014137;28;20429;-42
2023/07/05 00:24:53;;;;;;;9.37;8.50;;;;;;;12.40;100.00;101077.00;5014514;28;20850;-44
2023/07/05 00:27:20;;;;;;;9.17;8.57;;;;;;;12.36;100.00;101067.72;5014150;28;21129;-41
2023/07/05 00:29:49;;;;;;;10.40;9.40;;;;;;;12.32;100.00;101071.81;5013815;28;20883;-43
2023/07/05 00:32:17;;;;;;;10.13;9.20;;;;;;;12.32;100.00;101076.34;5013917;28;20429;-45
2023/07/05 00:34:44;;;;;;;8.80;8.13;;;;;;;12.29;100.00;101077.56;5014216;28;20433;-44
2023/07/05 00:37:12;;;;;;;10.83;9.80;;;;;;;12.27;100.00;101070.78;5014163;28;20461;-43
2023/07/05 00:39:41;;;;;;;12.37;9.33;;;;;;;12.25;100.00;101060.25;5013370;28;20464;-41
2023/07/05 00:42:09;;;;;;;9.70;8.97;;;;;;;12.23;100.00;101058.81;5013993;28;20444;-44
2023/07/05 00:44:37;;;;;;;9.93;9.13;;;;;;;12.18;100.00;101048.75;5013902;28;20429;-44
2023/07/05 00:47:12;;;;;;;9.80;9.10;;;;;;;12.18;100.00;101038.03;5013884;28;20473;-41
2023/07/05 00:49:40;;;;;;;10.90;9.90;;;;;;;12.17;100.00;101037.22;5013380;28;21103;-44
2023/07/05 00:52:13;;;;;;;10.57;9.50;;;;;;;12.18;100.00;101027.34;5013777;28;20846;-46
2023/07/05 00:54:46;;;;;;;10.23;9.23;;;;;;;12.20;100.00;101014.59;5013895;28;20435;-42
2023/07/05 00:57:18;;;;;;;9.87;9.00;;;;;;;12.20;100.00;101015.44;5013748;28;20958;-42
2023/07/05 00:59:52;;;;;;;9.77;9.07;;;;;;;12.21;100.00;101003.69;5013114;28;20530;-45
2023/07/05 01:02:20;;;;;;;10.43;9.63;;;;;;;12.22;100.00;101004.50;5013720;28;20421;-41
2023/07/05 01:04:47;;;;;;;10.40;9.60;;;;;;;12.25;100.00;100995.25;5013541;28;20437;-45
2023/07/05 01:07:16;;;;;;;10.70;9.40;;;;;;;12.25;100.00;101009.47;5013475;28;20561;-41
2023/07/05 01:09:47;;;;;;;10.30;9.60;;;;;;;12.28;100.00;101014.41;5012865;28;20473;-41
2023/07/05 01:12:20;;;;;;;11.77;10.73;;;;;;;12.32;100.00;101010.31;5013122;28;20429;-41
2023/07/05 01:15:03;;;;;;;12.47;10.60;;;;;;;12.36;100.00;100984.00;5013644;28;20869;-41
2023/07/05 01:17:40;;;;;;;10.47;9.70;;;;;;;12.43;100.00;100968.78;5013571;28;20521;-46
2023/07/05 01:20:23;;;;;;;13.13;11.23;;;;;;;12.51;100.00;100977.47;5012906;28;20986;-41
2023/07/05 01:23:29;;;;;;;13.40;11.67;;;;;;;12.59;100.00;100961.19;5013000;28;20468;-44
2023/07/05 01:26:25;;;;;;;12.97;11.87;;;;;;;12.72;100.00;100979.13;5013243;28;20504;-42
2023/07/05 01:29:18;;;;;;;12.47;10.67;;;;;;;12.80;100.00;100983.44;5013140;28;20491;-43
2023/07/05 01:31:58;;;;;;;11.67;10.83;;;;;;;12.87;100.00;100981.59;5002562;28;20511;-47
2023/07/05 01:34:37;;;;;;;17.10;11.83;;;;;;;12.91;100.00;100978.28;5013239;28;20572;-44
2023/07/05 01:37:06;;;;;;;11.13;10.33;;;;;;;12.97;100.00;100984.69;5013093;28;20430;-43
2023/07/05 01:39:35;;;;;;;11.03;10.20;;;;;;;13.02;100.00;100975.00;5012310;28;20468;-44
2023/07/05 01:42:05;;;;;;;12.33;10.30;;;;;;;13.06;100.00;100965.53;5012908;28;20433;-46
2023/07/05 01:44:33;;;;;;;12.50;10.77;;;;;;;13.10;100.00;100964.13;5013003;28;20460;-44
2023/07/05 01:47:09;;;;;;;12.20;11.03;;;;;;;13.15;100.00;100955.44;5012884;28;20535;-45
2023/07/05 01:49:46;;;;;;;11.43;10.70;;;;;;;13.19;100.00;100949.50;5012316;28;20970;-45
2023/07/05 01:52:27;;;;;;;14.30;11.03;;;;;;;13.23;100.00;100931.16;5012566;28;20436;-43
2023/07/05 01:55:08;;;;;;;12.33;10.90;;;;;;;13.27;100.00;100927.84;5012916;28;20429;-43
2023/07/05 01:57:40;;;;;;;12.40;11.27;;;;;;;13.34;100.00;100929.66;5012731;28;20433;-41
2023/07/05 02:00:12;;;;;;;11.43;10.30;;;;;;;13.39;100.00;100919.97;5012223;28;20507;-43
2023/07/05 02:02:47;;;;;;;12.57;10.47;;;;;;;13.42;100.00;100927.59;5012594;28;20508;-46
2023/07/05 02:05:16;;;;;;;11.90;10.90;;;;;;;13.43;100.00;100923.06;5012766;28;20436;-45
2023/07/05 02:07:45;;;;;;;13.27;11.33;;;;;;;13.46;100.00;100928.81;5012496;28;20477;-42
2023/07/05 02:10:13;;;;;;;15.10;11.37;;;;;;;13.48;100.00;100923.25;5011964;28;20556;-45
2023/07/05 02:12:43;;;;;;;11.43;10.50;;;;;;;13.49;100.00;100920.38;5012076;28;20437;-44
2023/07/05 02:15:12;;;;;;;12.70;11.57;;;;;;;13.52;100.00;100916.44;5012574;28;20524;-43
2023/07/05 02:17:41;;;;;;;11.67;10.60;;;;;;;13.51;100.00;100910.25;5012506;28;20475;-44
2023/07/05 02:20:09;;;;;;;12.10;11.07;;;;;;;13.52;100.00;100906.53;5011789;28;20472;-45
2023/07/05 02:22:37;;;;;;;11.60;10.60;;;;;;;13.52;100.00;100895.81;5011287;28;20459;-44
2023/07/05 02:25:06;;;;;;;11.67;10.50;;;;;;;13.53;100.00;100900.13;5012290;28;20796;-42
2023/07/05 02:27:34;;;;;;;12.67;10.87;;;;;;;13.53;100.00;100892.09;5011917;28;21069;-44
2023/07/05 02:30:03;;;;;;;14.13;11.00;;;;;;;13.58;100.00;100894.97;5011804;28;20469;-45
2023/07/05 02:32:31;;;;;;;11.93;11.07;;;;;;;13.61;100.00;100889.19;5011914;28;20440;-43
2023/07/05 02:35:01;;;;;;;11.47;10.50;;;;;;;13.67;100.00;100899.06;5012200;28;20441;-43
2023/07/05 02:37:32;;;;;;;13.73;11.40;;;;;;;13.67;100.00;100888.34;5012057;28;20464;-46
2023/07/05 02:39:59;;;;;;;11.50;10.57;;;;;;;13.70;100.00;100881.72;5011465;28;20522;-41
2023/07/05 02:42:27;;;;;;;11.90;10.80;;;;;;;13.71;100.00;100878.81;5012013;28;20433;-42
2023/07/05 02:44:56;;;;;;;13.97;11.53;;;;;;;13.73;100.00;100870.59;5012147;28;20503;-44
2023/07/05 02:47:24;;;;;;;18.83;11.67;;;;;;;13.74;100.00;100877.56;5012003;28;20480;-44
2023/07/05 02:49:52;;;;;;;12.33;11.53;;;;;;;13.76;100.00;100873.66;5011597;28;20464;-42
2023/07/05 02:52:21;;;;;;;12.50;11.30;;;;;;;13.77;100.00;100861.88;5011595;28;20490;-43
2023/07/05 02:54:49;;;;;;;11.80;10.80;;;;;;;13.80;100.00;100858.78;5012073;28;20441;-46
2023/07/05 02:57:17;;;;;;;19.20;11.93;;;;;;;13.81;100.00;100849.72;5012123;28;20847;-45
2023/07/05 02:59:45;;;;;;;11.67;10.70;;;;;;;13.82;100.00;100854.06;5011378;28;20512;-42
2023/07/05 03:02:12;;;;;;;12.63;11.67;;;;;;;13.84;100.00;100843.91;5011684;28;20511;-44
2023/07/05 03:04:42;;;;;;;12.40;11.20;;;;;;;13.82;100.00;100837.97;5011892;28;21139;-42
2023/07/05 03:07:10;;;;;;;17.40;12.93;;;;;;;13.83;100.00;100825.34;5011640;28;20476;-47
2023/07/05 03:09:39;;;;;;;12.50;11.70;;;;;;;13.84;100.00;100824.34;5011327;28;20461;-44
2023/07/05 03:12:08;;;;;;;12.60;11.50;;;;;;;13.84;100.00;100824.34;5011704;28;20431;-45
2023/07/05 03:14:36;;;;;;;16.37;11.80;;;;;;;13.81;100.00;100808.69;5011825;28;20480;-45
2023/07/05 03:17:04;;;;;;;13.37;12.07;;;;;;;13.75;100.00;100802.31;5011738;28;20469;-43
2023/07/05 03:19:31;;;;;;;12.83;11.90;;;;;;;13.78;100.00;100803.75;5011189;28;20461;-45
2023/07/05 03:22:00;;;;;;;13.40;12.17;;;;;;;13.80;100.00;100804.34;5011483;28;20511;-45
2023/07/05 03:24:27;;;;;;;12.57;11.60;;;;;;;13.80;100.00;100793.63;5011744;28;20467;-42
2023/07/05 03:26:57;;;;;;;13.13;11.10;;;;;;;13.81;100.00;100792.59;5011646;28;20477;-42
2023/07/05 03:29:25;;;;;;;11.40;10.60;;;;;;;13.79;100.00;100784.78;5011258;28;20461;-41
2023/07/05 03:31:52;;;;;;;12.60;11.80;;;;;;;13.79;100.00;100766.03;5011265;28;20511;-42
2023/07/05 03:34:20;;;;;;;12.57;11.50;;;;;;;13.81;100.00;100761.25;5013982;28;20433;-43
2023/07/05 03:36:48;;;;;;;13.27;11.93;;;;;;;13.84;100.00;100768.03;5015406;28;20838;-46
2023/07/05 03:39:16;;;;;;;11.77;10.93;;;;;;;13.83;100.00;100766.38;5014965;28;20930;-42
2023/07/05 03:41:44;;;;;;;12.70;11.40;;;;;;;13.85;100.00;100775.88;5015170;28;20448;-44
2023/07/05 03:44:13;;;;;;;12.87;11.83;;;;;;;13.87;100.00;100770.28;5014950;28;20684;-42
2023/07/05 03:46:42;;;;;;;14.30;12.07;;;;;;;13.91;100.00;100760.78;5014771;28;20444;-43
2023/07/05 03:49:10;;;;;;;11.00;10.27;;;;;;;13.91;100.00;100751.91;5014927;28;20436;-42
2023/07/05 03:51:38;;;;;;;11.67;10.37;;;;;;;13.94;100.00;100735.41;5013902;28;20449;-44
2023/07/05 03:54:06;;;;;;;12.23;11.40;;;;;;;14.01;100.00;100738.84;5014959;28;20524;-42
2023/07/05 03:56:36;;;;;;;12.93;11.63;;;;;;;14.02;100.00;100741.31;5014871;28;20515;-45
2023/07/05 03:59:04;;;;;;;12.90;11.30;;;;;;;14.03;100.00;100740.28;5014289;28;20457;-45
2023/07/05 04:01:33;;;;;;;12.70;11.60;;;;;;;14.07;100.00;100733.41;5014708;28;20491;-45
2023/07/05 04:04:02;;;;;;;12.33;11.63;;;;;;;14.06;100.00;100747.06;5014764;28;20543;-43
2023/07/05 04:06:32;;;;;;;13.30;12.40;;;;;;;14.06;100.00;100739.84;5014792;28;20433;-47
2023/07/05 04:09:00;;;;;;;14.17;12.50;;;;;;;14.00;100.00;100735.34;5014671;28;20830;-41
2023/07/05 04:11:29;;;;;;;13.73;12.53;;;;;;;14.05;100.00;100738.19;5014024;28;20449;-42
2023/07/05 04:13:58;;;;;;;13.77;12.50;;;;;;;14.05;100.00;100732.81;5014804;28;20425;-46
2023/07/05 04:16:27;;;;;;;13.63;12.50;;;;;;;14.06;100.00;100737.16;5014527;28;20994;-44
2023/07/05 04:18:58;;;;;;;14.07;13.00;;;;;;;14.05;100.00;100742.72;5014656;28;20433;-41
2023/07/05 04:21:27;;;;;;;14.33;13.13;;;;;;;14.05;100.00;100729.31;5013744;28;20471;-45
2023/07/05 04:23:55;;;;;;;14.40;13.20;;;;;;;14.04;100.00;100735.69;5014163;28;20466;-45
2023/07/05 04:26:25;;;;;;;13.03;12.13;;;;;;;14.05;100.00;100740.88;5014106;28;20437;-42
2023/07/05 04:28:53;;;;;;;14.77;13.27;;;;;;;14.02;100.00;100717.16;5013616;28;20825;-43
2023/07/05 04:31:27;;;;;;;14.57;13.47;;;;;;;14.05;100.00;100710.53;5013347;28;20886;-45
2023/07/05 04:33:56;;;;;;;13.90;12.90;;;;;;;14.02;100.00;100700.25;5013879;28;21022;-45
2023/07/05 04:36:25;;;;;;;14.07;13.10;;;;;;;14.04;100.00;100684.75;5013861;28;20445;-44
2023/07/05 04:38:56;;;;;;;15.37;13.93;;;;;;;14.06;100.00;100701.47;5014027;28;20856;-45
2023/07/05 04:41:24;;;;;;;14.40;13.03;;;;;;;14.05;100.00;100697.13;5013417;28;20555;-45
2023/07/05 04:43:52;;;;;;;14.10;13.17;;;;;;;14.07;100.00;100692.38;5014018;28;20534;-43
2023/07/05 04:46:24;;;;;;;13.93;13.07;;;;;;;14.05;100.00;100697.97;5013618;28;20437;-43
2023/07/05 04:48:52;;;;;;;14.00;13.07;;;;;;;14.07;100.00;100701.22;5019719;28;20476;-44
2023/07/05 04:51:21;;;;;;;14.40;13.00;;;;;;;14.02;100.00;100692.22;5019403;28;20843;-44
2023/07/05 04:53:49;;;;;;;15.50;14.20;;;;;;;13.99;100.00;100682.75;5019854;28;20433;-40
2023/07/05 04:56:17;;;;;;;14.73;13.67;;;;;;;14.00;100.00;100688.94;5020093;28;20911;-41
2023/07/05 04:58:45;;;;;;;14.53;13.40;;;;;;;13.99;100.00;100685.44;5020064;28;20429;-41
2023/07/05 05:01:13;;;;;;;16.40;15.10;;;;;;;13.97;100.00;100686.69;5019423;28;20465;-45
2023/07/05 05:03:41;;;;;;;14.70;13.80;;;;;;;13.99;100.00;100677.38;5019763;28;20994;-42
2023/07/05 05:06:09;;;;;;;15.23;14.03;;;;;;;13.99;100.00;100674.72;5020249;28;20447;-44
2023/07/05 05:08:39;;;;;;;16.30;14.90;;;;;;;13.96;100.00;100674.31;5019898;28;20477;-46
2023/07/05 05:11:07;;;;;;;13.77;13.07;;;;;;;13.98;100.00;100670.38;5019580;28;20471;-43
2023/07/05 05:13:36;;;;;;;15.00;13.80;;;;;;;13.96;100.00;100664.44;5019126;28;20429;-42
2023/07/05 05:16:05;;;;;;;15.40;14.23;;;;;;;13.95;100.00;100654.72;5019285;28;20963;-44
2023/07/05 05:18:37;;;;;;;14.43;13.57;;;;;;;13.93;100.00;100648.78;5020154;28;20433;-44
2023/07/05 05:21:05;;;;;;;14.50;13.67;;;;;;;13.94;100.00;100638.88;5019679;28;20472;-47
2023/07/05 05:23:33;;;;;;;15.80;14.60;;;;;;;13.93;100.00;100630.00;5019479;28;20512;-42
2023/07/05 05:26:03;;;;;;;16.47;14.90;;;;;;;13.89;100.00;100630.69;5019467;28;20487;-44
2023/07/05 05:28:31;;;;;;;16.23;15.07;;;;;;;13.88;100.00;100618.31;5019315;28;20479;-45
2023/07/05 05:31:04;;;;;;;16.63;15.33;;;;;;;13.91;100.00;100616.03;5018515;28;20457;-47
2023/07/05 05:33:32;;;;;;;16.40;14.90;;;;;;;13.94;100.00;100609.38;5019141;28;20429;-46
2023/07/05 05:36:00;;;;;;;16.73;15.37;;;;;;;13.90;100.00;100603.66;5018111;28;20433;-44
2023/07/05 05:38:28;;;;;;;15.57;14.30;;;;;;;13.90;100.00;100584.06;5018317;28;20453;-47
2023/07/05 05:41:02;;;;;;;16.30;15.10;;;;;;;13.88;100.00;100580.78;5017747;28;20549;-44
2023/07/05 05:43:31;;;;;;;17.30;15.90;;;;;;;13.88;100.00;100572.75;5018410;28;20803;-48
2023/07/05 05:45:59;;;;;;;18.17;16.70;;;;;;;13.85;100.00;100560.63;5018471;28;20433;-45
2023/07/05 05:48:27;;;;;;;17.53;16.23;;;;;;;13.82;100.00;100553.03;5019192;28;20469;-47
2023/07/05 05:50:55;;;;;;;17.57;16.10;;;;;;;13.82;100.00;100540.44;5018058;28;20469;-46
2023/07/05 05:53:23;;;;;;;16.90;15.83;;;;;;;13.82;100.00;100529.72;5018790;28;20543;-44
2023/07/05 05:55:50;;;;;;;19.30;18.00;;;;;;;13.86;100.00;100530.06;5018109;28;20456;-47
2023/07/05 05:58:18;;;;;;;19.77;18.30;;;;;;;13.88;100.00;100529.84;5017430;28;20429;-43
2023/07/05 06:00:47;;;;;;;16.63;15.63;;;;;;;13.92;100.00;100509.63;5017894;28;20612;-45
2023/07/05 06:03:15;;;;;;;19.17;17.80;;;;;;;13.93;100.00;100504.03;5018493;28;20440;-42
2023/07/05 06:05:43;;;;;;;19.40;18.00;;;;;;;13.95;100.00;100493.09;5018720;28;20499;-42
2023/07/05 06:08:11;;;;;;;18.27;17.10;;;;;;;13.96;100.00;100484.81;5017969;28;20433;-44
2023/07/05 06:10:38;;;;;;;17.17;16.03;;;;;;;13.98;100.00;100485.38;5017584;28;20488;-45
2023/07/05 06:13:06;;;;;;;20.17;18.60;;;;;;;14.01;100.00;100481.47;5018149;28;20456;-45
2023/07/05 06:15:34;;;;;;;18.17;16.97;;;;;;;14.03;100.00;100479.38;5018750;28;20523;-45
2023/07/05 06:18:03;;;;;;;21.03;18.33;;;;;;;14.01;100.00;100454.66;5018020;28;20464;-50
2023/07/05 06:20:33;;;;;;;20.20;19.00;;;;;;;14.16;100.00;100455.88;5018129;28;20472;-49
2023/07/05 06:23:03;;;;;;;18.07;16.80;;;;;;;14.13;100.00;100450.97;5018617;28;20835;-42
2023/07/05 06:25:31;;;;;;;19.43;17.83;;;;;;;14.19;100.00;100457.28;5018320;28;20432;-44
2023/07/05 06:27:59;;;;;;;19.23;17.53;;;;;;;14.26;100.00;100440.06;5018729;28;20448;-42
2023/07/05 06:30:26;;;;;;;18.97;17.40;;;;;;;14.16;100.00;100442.47;5017502;28;20599;-40
2023/07/05 06:32:55;;;;;;;19.40;18.00;;;;;;;14.22;100.00;100436.19;5018223;28;20433;-42
2023/07/05 06:35:24;;;;;;;19.87;18.67;;;;;;;14.29;100.00;100422.69;5018137;28;21030;-46
2023/07/05 06:37:51;;;;;;;20.10;18.27;;;;;;;14.31;100.00;100440.19;5018013;28;20468;-40
2023/07/05 06:40:19;;;;;;;20.93;19.27;;;;;;;14.35;100.00;100438.72;5018202;28;20465;-40
2023/07/05 06:42:47;;;;;;;19.23;17.80;;;;;;;14.43;100.00;100426.00;5018383;28;20839;-42
2023/07/05 06:45:15;;;;;;;19.77;18.40;;;;;;;14.52;100.00;100427.31;5017734;28;20437;-43
2023/07/05 06:47:45;;;;;;;19.30;18.00;;;;;;;14.54;100.00;100431.44;5017457;28;20882;-41
2023/07/05 06:50:14;;;;;;;18.50;17.30;;;;;;;14.61;100.00;100426.78;5017109;28;20472;-42
2023/07/05 06:52:43;;;;;;;18.77;17.37;;;;;;;14.61;100.00;100407.97;5017924;28;20799;-42
2023/07/05 06:55:12;;;;;;;20.70;19.10;;;;;;;14.70;100.00;100421.88;5017967;28;20464;-46
2023/07/05 06:57:40;;;;;;;20.83;19.23;;;;;;;14.80;100.00;100414.91;5017869;28;20839;-41
2023/07/05 07:00:10;;;;;;;21.00;19.60;;;;;;;14.88;100.00;100400.31;5017873;28;20499;-44
2023/07/05 07:02:37;;;;;;;22.47;20.50;;;;;;;14.86;100.00;100405.09;5017768;28;20429;-42
2023/07/05 07:05:06;;;;;;;18.93;17.67;;;;;;;14.90;100.00;100407.09;5017659;28;20429;-44
2023/07/05 07:07:33;;;;;;;20.50;18.87;;;;;;;14.88;100.00;100401.13;5017761;28;20433;-43
2023/07/05 07:10:04;;;;;;;20.97;19.43;;;;;;;14.93;100.00;100400.44;5020642;28;20476;-43
2023/07/05 07:12:31;;;;;;;19.83;18.53;;;;;;;14.85;100.00;100385.50;5022023;28;20453;-41
2023/07/05 07:14:59;;;;;;;21.40;19.40;;;;;;;14.86;100.00;100387.13;5021507;28;20938;-44
2023/07/05 07:17:27;;;;;;;20.57;19.03;;;;;;;14.83;100.00;100382.22;5021910;28;20448;-40
2023/07/05 07:19:54;;;;;;;20.13;18.73;;;;;;;14.89;100.00;100386.66;5020914;28;20978;-41
2023/07/05 07:22:24;;;;;;;21.80;20.00;;;;;;;14.87;100.00;100380.69;5021100;28;20973;-42
2023/07/05 07:24:52;;;;;;;21.13;19.50;;;;;;;14.83;100.00;100368.81;5022107;28;20822;-44
2023/07/05 07:27:21;;;;;;;19.90;18.40;;;;;;;14.79;100.00;100375.69;5020902;28;20499;-44
2023/07/05 07:29:49;;;;;;;20.70;19.17;;;;;;;14.83;100.00;100368.00;5020698;28;20464;-42
2023/07/05 07:32:16;;;;;;;20.77;19.20;;;;;;;14.83;100.00;100368.00;5022313;28;20440;-43
2023/07/05 07:34:44;;;;;;;22.27;20.07;;;;;;;14.86;100.00;100373.72;5021270;28;20498;-45
2023/07/05 07:37:12;;;;;;;21.97;20.27;;;;;;;14.84;100.00;100369.63;5021287;28;20444;-45
2023/07/05 07:39:40;;;;;;;22.17;20.47;;;;;;;14.83;100.00;100376.88;5019972;28;20468;-46
2023/07/05 07:42:08;;;;;;;21.00;19.27;;;;;;;14.78;100.00;100379.41;5020586;28;20774;-44
2023/07/05 07:44:38;;;;;;;21.97;19.97;;;;;;;14.73;100.00;100371.25;5021023;28;20433;-42
2023/07/05 07:47:06;;;;;;;20.87;19.27;;;;;;;14.64;100.00;100364.59;5021161;28;20432;-44
2023/07/05 07:49:34;;;;;;;21.87;20.30;;;;;;;14.54;100.00;100345.56;5020847;28;20886;-43
2023/07/05 07:52:02;;;;;;;20.57;18.87;;;;;;;14.56;100.00;100364.13;5020293;28;20492;-42
2023/07/05 07:54:31;;;;;;;21.07;18.97;;;;;;;14.55;100.00;100347.19;5020777;28;20443;-43
2023/07/05 07:56:59;;;;;;;22.07;20.33;;;;;;;14.54;100.00;100340.22;5021326;28;20433;-46
2023/07/05 07:59:26;;;;;;;19.90;18.47;;;;;;;14.57;100.00;100342.44;5020784;28;21339;-44
2023/07/05 08:01:56;;;;;;;20.60;19.00;;;;;;;14.62;100.00;100349.78;5020665;28;20465;-41
2023/07/05 08:04:23;;;;;;;19.50;18.20;;;;;;;14.64;100.00;100345.81;5020508;28;20439;-46
2023/07/05 08:06:52;;;;;;;20.87;19.37;;;;;;;14.57;100.00;100345.13;5020352;28;20507;-47
2023/07/05 08:09:25;;;;;;;21.40;19.57;;;;;;;14.67;100.00;100331.09;5019412;28;20457;-44
2023/07/05 08:11:52;;;;;;;20.20;18.70;;;;;;;14.73;100.00;100332.84;5020254;28;20452;-45
2023/07/05 08:14:20;;;;;;;18.47;17.20;;;;;;;14.76;100.00;100324.31;5020635;28;20461;-46
2023/07/05 08:16:48;;;;;;;21.13;19.50;;;;;;;14.74;100.00;100318.38;5020767;28;20484;-42
2023/07/05 08:19:19;;;;;;;21.20;19.50;;;;;;;14.81;100.00;100316.41;5020153;28;20799;-45
2023/07/05 08:21:46;;;;;;;20.53;18.80;;;;;;;14.84;100.00;100315.94;5019023;28;20511;-45
2023/07/05 08:24:15;;;;;;;19.13;17.80;;;;;;;14.88;100.00;100314.41;5021347;28;20487;-43
2023/07/05 08:26:54;;;;;;;19.90;18.40;;;;;;;14.97;100.00;100318.38;5020566;28;20451;-43
2023/07/05 08:29:22;;;;;;;20.17;18.87;;;;;;;15.01;100.00;100314.16;5020242;28;20797;-50
2023/07/05 08:31:50;;;;;;;18.97;17.67;;;;;;;15.18;100.00;100325.81;5019297;28;20448;-42
2023/07/05 08:34:19;;;;;;;19.17;17.77;;;;;;;15.19;100.00;100315.88;5019568;28;20464;-46
2023/07/05 08:36:47;;;;;;;19.23;17.73;;;;;;;15.26;100.00;100320.06;5020819;28;20436;-43
2023/07/05 08:39:15;;;;;;;19.03;17.80;;;;;;;15.34;100.00;100335.00;5019938;28;20437;-47
2023/07/05 08:42:09;;;;;;;18.10;16.87;;;;;;;15.41;100.00;100335.72;5020226;28;20526;-45
2023/07/05 08:44:55;;;;;;;20.60;18.97;;;;;;;15.57;100.00;100323.41;5019984;28;20503;-41
2023/07/05 08:47:29;;;;;;;19.23;17.80;;;;;;;15.67;100.00;100315.53;5033812;28;20793;-45
2023/07/05 08:50:07;;;;;;;19.53;18.13;;;;;;;15.72;100.00;100315.63;5019221;28;20839;-46
2023/07/05 08:52:58;;;;;;;20.27;18.77;;;;;;;15.76;100.00;100316.78;5019753;28;20429;-42
2023/07/05 08:55:29;;;;;;;20.77;19.17;;;;;;;15.96;100.00;100322.53;5019470;28;20425;-41
2023/07/05 08:57:58;;;;;;;21.40;19.83;;;;;;;16.15;100.00;100309.69;5019730;28;20487;-42
2023/07/05 09:00:29;;;;;;;20.53;19.17;;;;;;;16.47;100.00;100308.06;5019637;28;20492;-45
2023/07/05 09:02:57;;;;;;;20.87;19.37;;;;;;;16.80;100.00;100309.94;5019676;28;20433;-41
2023/07/05 09:05:37;;;;;;;18.33;17.13;;;;;;;17.25;100.00;100309.72;5019532;28;20469;-41
2023/07/05 09:08:19;;;;;;;20.30;19.00;;;;;;;17.54;100.00;100290.44;5019903;28;20433;-44
2023/07/05 09:10:53;;;;;;;19.73;18.43;;;;;;;17.88;100.00;100301.88;5018632;28;20476;-43
2023/07/05 09:13:30;;;;;;;20.17;18.80;;;;;;;18.15;100.00;100294.56;5019353;28;20517;-41
2023/07/05 09:16:10;;;;;;;20.00;18.60;;;;;;;18.35;100.00;100298.50;5019928;28;20866;-41
2023/07/05 09:18:54;;;;;;;20.23;19.17;;;;;;;18.59;100.00;100303.31;5019418;28;20428;-44
2023/07/05 09:21:32;;;;;;;21.70;20.40;;;;;;;18.61;100.00;100303.84;5018072;28;20464;-48
2023/07/05 09:24:11;;;;;;;21.53;20.20;;;;;;;18.62;100.00;100291.16;5018981;28;20431;-42
2023/07/05 09:26:44;;;;;;;22.33;20.33;;;;;;;19.64;100.00;100299.53;5019167;28;20464;-43
2023/07/05 09:29:17;;;;;;;20.53;19.13;;;;;;;20.30;100.00;100286.91;5018376;28;20432;-43
2023/07/05 09:31:48;;;;;;;20.93;19.83;;;;;;;20.92;100.00;100286.53;5018057;28;20484;-43
2023/07/05 09:34:26;;;;;;;21.60;20.13;;;;;;;21.44;100.00;100269.03;5017817;28;20432;-43
2023/07/05 09:36:55;;;;;;;21.17;19.77;;;;;;;21.68;100.00;100278.09;5018860;28;20506;-45
2023/07/05 09:39:33;;;;;;;22.63;21.13;;;;;;;21.69;100.00;100278.91;5017890;28;20452;-45
2023/07/05 09:42:06;;;;;;;21.20;19.83;;;;;;;22.04;100.00;100278.72;5018244;28;20532;-44
2023/07/05 09:44:34;;;;;;;21.20;19.90;;;;;;;22.20;100.00;100274.75;5018975;28;20528;-41
2023/07/05 09:47:02;;;;;;;22.27;21.10;;;;;;;22.35;100.00;100265.66;5017923;28;20498;-44
2023/07/05 09:49:30;;;;;;;20.70;19.57;;;;;;;22.10;100.00;100258.56;5018395;28;20476;-42
2023/07/05 09:52:00;;;;;;;22.10;20.70;;;;;;;22.42;100.00;100263.44;5018322;28;20473;-41
2023/07/05 09:54:31;;;;;;;22.03;20.53;;;;;;;22.49;100.00;100251.13;5017457;28;20934;-42
2023/07/05 09:57:04;;;;;;;22.13;20.73;;;;;;;22.65;100.00;100249.09;5017188;28;20543;-45
2023/07/05 09:59:33;;;;;;;19.40;18.43;;;;;;;22.48;100.00;100241.38;5017066;28;20464;-44
2023/07/05 10:02:16;;;;;;;21.47;19.93;;;;;;;22.41;100.00;100243.59;5017766;28;20769;-42
2023/07/05 10:04:45;;;;;;;19.93;18.93;;;;;;;22.31;100.00;100243.69;5017786;28;20472;-44
2023/07/05 10:07:19;;;;;;;19.40;18.27;;;;;;;22.18;100.00;100238.13;5018105;28;20437;-42
2023/07/05 10:09:57;;;;;;;20.73;19.10;;;;;;;22.22;100.00;100234.53;5017150;28;20460;-44
2023/07/05 10:12:28;;;;;;;19.13;17.93;;;;;;;22.09;100.00;100237.94;5017170;28;20476;-42
2023/07/05 10:14:56;;;;;;;19.57;18.57;;;;;;;22.29;100.00;100232.31;5017867;28;20495;-47
2023/07/05 10:17:40;;;;;;;19.03;17.93;;;;;;;22.04;100.00;100229.84;5018024;28;20433;-46
2023/07/05 10:20:19;;;;;;;17.10;16.10;;;;;;;21.69;100.00;100233.56;5016704;28;21004;-49
2023/07/05 10:22:48;;;;;;;20.53;18.50;;;;;;;21.69;100.00;100238.19;5018099;28;20442;-42
2023/07/05 10:25:19;;;;;;;19.03;17.90;;;;;;;21.70;100.00;100237.91;5017342;28;20459;-41
2023/07/05 10:27:49;;;;;;;18.80;17.73;;;;;;;21.46;100.00;100242.41;5018008;28;20448;-44
2023/07/05 10:30:19;;;;;;;18.83;17.83;;;;;;;21.22;100.00;100246.88;5016500;28;20516;-46
2023/07/05 10:32:50;;;;;;;16.63;15.73;;;;;;;21.06;100.00;100256.13;5017320;28;20433;-42
2023/07/05 10:35:22;;;;;;;15.67;14.90;;;;;;;21.06;100.00;100243.38;5017493;28;20436;-44
2023/07/05 10:37:52;;;;;;;14.20;13.17;;;;;;;21.18;100.00;100237.66;5017583;28;20920;-46
2023/07/05 10:40:21;;;;;;;15.30;14.60;;;;;;;21.61;100.00;100234.19;5016154;28;20515;-47
2023/07/05 10:42:52;;;;;;;12.77;12.13;;;;;;;22.24;100.00;100226.13;5016807;28;20503;-47
2023/07/05 10:45:22;;;;;;;12.20;11.60;;;;;;;22.35;100.00;100220.31;5017379;28;20468;-50
2023/07/05 10:47:52;;;;;;;11.63;10.43;;;;;;;22.79;100.00;100219.34;5016676;28;20424;-45
2023/07/05 10:50:27;;;;;;;9.67;8.97;;;;;;;22.58;100.00;100214.06;5016854;28;20519;-45
2023/07/05 10:53:01;;;;;;;7.83;7.30;;;;;;;22.88;97.24;100212.16;5017241;28;20523;-49
2023/07/05 10:55:39;;;;;;;7.90;7.20;;;;;;;23.28;92.86;100211.63;5017909;28;20500;-47
2023/07/05 10:58:12;;;;;;;7.30;6.90;;;;;;;23.51;85.27;100215.41;5017357;28;20440;-45
2023/07/05 11:00:45;;;;;;;6.10;5.80;;;;;;;23.61;82.61;100204.38;5016975;28;20461;-43
2023/07/05 11:03:21;;;;;;;6.10;5.80;;;;;;;23.48;83.65;100211.38;5017381;28;20863;-44
2023/07/05 11:05:51;;;;;;;6.57;6.13;;;;;;;23.43;79.84;100216.91;5016084;28;20463;-46
2023/07/05 11:08:26;;;;;;;6.17;5.87;;;;;;;23.22;80.99;100206.53;5016772;28;20431;-43
2023/07/05 11:10:57;;;;;;;5.53;5.23;;;;;;;22.81;79.16;100204.34;5016738;28;20470;-42
2023/07/05 11:13:25;;;;;;;6.40;5.90;;;;;;;22.83;78.29;100204.88;5017665;28;20424;-42
2023/07/05 11:15:54;;;;;;;5.53;5.07;;;;;;;22.85;82.15;100207.31;5017055;28;20471;-47
2023/07/05 11:18:26;;;;;;;5.63;5.33;;;;;;;22.74;82.07;100203.06;5017361;28;20431;-42